sensor_id;sensor_type;location;lat;lon;timestamp;P1;durP1;ratioP1;P2;durP2;ratioP2
12719;SDS011;6424;48.520;11.228;2023-05-28T00:02:28;10.23;;;4.47;;
12719;SDS011;6424;48.520;11.228;2023-05-28T00:05:08;8.40;;;4.00;;
12719;SDS011;6424;48.520;11.228;2023-05-28T00:07:49;8.93;;;5.43;;
12719;SDS011;6424;48.520;11.228;2023-05-28T00:10:30;7.07;;;4.80;;
12719;SDS011;6424;48.520;11.228;2023-05-28T00:13:11;8.47;;;4.43;;
12719;SDS011;6424;48.520;11.228;2023-05-28T00:15:51;8.40;;;4.87;;
12719;SDS011;6424;48.520;11.228;2023-05-28T00:18:32;9.87;;;5.00;;
12719;SDS011;6424;48.520;11.228;2023-05-28T00:21:13;6.77;;;4.27;;
12719;SDS011;6424;48.520;11.228;2023-05-28T00:23:54;8.73;;;4.73;;
12719;SDS011;6424;48.520;11.228;2023-05-28T00:26:35;8.73;;;4.90;;
12719;SDS011;6424;48.520;11.228;2023-05-28T00:29:17;7.77;;;4.97;;
12719;SDS011;6424;48.520;11.228;2023-05-28T00:31:58;8.80;;;5.20;;
12719;SDS011;6424;48.520;11.228;2023-05-28T00:34:38;10.17;;;5.30;;
12719;SDS011;6424;48.520;11.228;2023-05-28T00:37:19;8.43;;;5.33;;
12719;SDS011;6424;48.520;11.228;2023-05-28T00:40:00;7.23;;;4.40;;
12719;SDS011;6424;48.520;11.228;2023-05-28T00:42:41;7.30;;;4.83;;
12719;SDS011;6424;48.520;11.228;2023-05-28T00:45:22;10.83;;;4.63;;
12719;SDS011;6424;48.520;11.228;2023-05-28T00:48:03;11.87;;;5.43;;
12719;SDS011;6424;48.520;11.228;2023-05-28T00:50:44;9.93;;;4.93;;
12719;SDS011;6424;48.520;11.228;2023-05-28T00:53:26;9.77;;;5.33;;
12719;SDS011;6424;48.520;11.228;2023-05-28T00:56:08;8.90;;;4.43;;
12719;SDS011;6424;48.520;11.228;2023-05-28T00:58:50;11.17;;;5.70;;
12719;SDS011;6424;48.520;11.228;2023-05-28T01:01:32;6.03;;;4.57;;
12719;SDS011;6424;48.520;11.228;2023-05-28T01:04:15;6.27;;;4.90;;
12719;SDS011;6424;48.520;11.228;2023-05-28T01:06:57;9.87;;;5.63;;
12719;SDS011;6424;48.520;11.228;2023-05-28T01:09:38;11.47;;;6.20;;
12719;SDS011;6424;48.520;11.228;2023-05-28T01:12:19;9.10;;;5.60;;
12719;SDS011;6424;48.520;11.228;2023-05-28T01:15:01;10.83;;;5.90;;
12719;SDS011;6424;48.520;11.228;2023-05-28T01:17:27;8.97;;;5.73;;
12719;SDS011;6424;48.520;11.228;2023-05-28T01:20:07;7.43;;;4.77;;
12719;SDS011;6424;48.520;11.228;2023-05-28T01:22:38;7.67;;;5.03;;
12719;SDS011;6424;48.520;11.228;2023-05-28T01:25:25;7.57;;;4.90;;
12719;SDS011;6424;48.520;11.228;2023-05-28T01:28:11;8.23;;;4.93;;
12719;SDS011;6424;48.520;11.228;2023-05-28T01:30:53;9.47;;;4.80;;
12719;SDS011;6424;48.520;11.228;2023-05-28T01:33:33;6.60;;;4.90;;
12719;SDS011;6424;48.520;11.228;2023-05-28T01:36:23;9.93;;;4.43;;
12719;SDS011;6424;48.520;11.228;2023-05-28T01:38:54;12.27;;;4.93;;
12719;SDS011;6424;48.520;11.228;2023-05-28T01:41:39;7.47;;;4.20;;
12719;SDS011;6424;48.520;11.228;2023-05-28T01:44:20;12.30;;;5.07;;
12719;SDS011;6424;48.520;11.228;2023-05-28T01:47:01;7.87;;;4.50;;
12719;SDS011;6424;48.520;11.228;2023-05-28T01:49:42;6.90;;;4.50;;
12719;SDS011;6424;48.520;11.228;2023-05-28T01:52:23;7.03;;;4.63;;
12719;SDS011;6424;48.520;11.228;2023-05-28T01:55:04;9.57;;;4.77;;
12719;SDS011;6424;48.520;11.228;2023-05-28T01:57:45;7.60;;;4.57;;
12719;SDS011;6424;48.520;11.228;2023-05-28T02:00:26;8.60;;;4.90;;
12719;SDS011;6424;48.520;11.228;2023-05-28T02:03:07;11.27;;;4.97;;
12719;SDS011;6424;48.520;11.228;2023-05-28T02:05:51;10.07;;;5.47;;
12719;SDS011;6424;48.520;11.228;2023-05-28T02:08:32;6.30;;;4.40;;
12719;SDS011;6424;48.520;11.228;2023-05-28T02:11:12;8.30;;;4.50;;
12719;SDS011;6424;48.520;11.228;2023-05-28T02:13:53;8.23;;;4.40;;
12719;SDS011;6424;48.520;11.228;2023-05-28T02:16:19;9.23;;;4.50;;
12719;SDS011;6424;48.520;11.228;2023-05-28T02:19:00;8.80;;;5.20;;
12719;SDS011;6424;48.520;11.228;2023-05-28T02:21:41;7.43;;;4.73;;
12719;SDS011;6424;48.520;11.228;2023-05-28T02:24:22;9.53;;;4.60;;
12719;SDS011;6424;48.520;11.228;2023-05-28T02:26:48;8.03;;;4.60;;
12719;SDS011;6424;48.520;11.228;2023-05-28T02:29:29;8.07;;;4.67;;
12719;SDS011;6424;48.520;11.228;2023-05-28T02:32:09;6.87;;;4.90;;
12719;SDS011;6424;48.520;11.228;2023-05-28T02:34:50;12.23;;;5.10;;
12719;SDS011;6424;48.520;11.228;2023-05-28T02:37:34;8.50;;;4.87;;
12719;SDS011;6424;48.520;11.228;2023-05-28T02:40:15;7.13;;;5.10;;
12719;SDS011;6424;48.520;11.228;2023-05-28T02:42:56;7.53;;;4.57;;
12719;SDS011;6424;48.520;11.228;2023-05-28T02:45:36;8.83;;;5.00;;
12719;SDS011;6424;48.520;11.228;2023-05-28T02:48:17;7.10;;;4.80;;
12719;SDS011;6424;48.520;11.228;2023-05-28T02:50:58;9.03;;;5.40;;
12719;SDS011;6424;48.520;11.228;2023-05-28T02:53:39;12.67;;;5.53;;
12719;SDS011;6424;48.520;11.228;2023-05-28T02:56:20;9.27;;;5.17;;
12719;SDS011;6424;48.520;11.228;2023-05-28T02:59:01;8.77;;;4.40;;
12719;SDS011;6424;48.520;11.228;2023-05-28T03:01:27;9.53;;;5.10;;
12719;SDS011;6424;48.520;11.228;2023-05-28T03:04:08;9.17;;;4.93;;
12719;SDS011;6424;48.520;11.228;2023-05-28T03:06:49;9.30;;;5.00;;
12719;SDS011;6424;48.520;11.228;2023-05-28T03:09:30;9.07;;;5.10;;
12719;SDS011;6424;48.520;11.228;2023-05-28T03:12:11;7.60;;;4.90;;
12719;SDS011;6424;48.520;11.228;2023-05-28T03:14:51;8.93;;;5.00;;
12719;SDS011;6424;48.520;11.228;2023-05-28T03:17:32;8.83;;;4.63;;
12719;SDS011;6424;48.520;11.228;2023-05-28T03:20:13;7.50;;;4.30;;
12719;SDS011;6424;48.520;11.228;2023-05-28T03:22:55;8.30;;;4.67;;
12719;SDS011;6424;48.520;11.228;2023-05-28T03:25:22;9.50;;;5.20;;
12719;SDS011;6424;48.520;11.228;2023-05-28T03:28:04;9.50;;;4.90;;
12719;SDS011;6424;48.520;11.228;2023-05-28T03:30:30;7.63;;;4.90;;
12719;SDS011;6424;48.520;11.228;2023-05-28T03:33:11;9.93;;;5.63;;
12719;SDS011;6424;48.520;11.228;2023-05-28T03:35:52;11.63;;;5.17;;
12719;SDS011;6424;48.520;11.228;2023-05-28T03:38:33;8.47;;;5.07;;
12719;SDS011;6424;48.520;11.228;2023-05-28T03:41:13;7.40;;;4.93;;
12719;SDS011;6424;48.520;11.228;2023-05-28T03:43:39;9.90;;;5.13;;
12719;SDS011;6424;48.520;11.228;2023-05-28T03:46:05;7.60;;;4.30;;
12719;SDS011;6424;48.520;11.228;2023-05-28T03:48:47;8.00;;;4.90;;
12719;SDS011;6424;48.520;11.228;2023-05-28T03:51:27;7.93;;;5.00;;
12719;SDS011;6424;48.520;11.228;2023-05-28T03:54:08;7.20;;;5.10;;
12719;SDS011;6424;48.520;11.228;2023-05-28T03:56:49;9.67;;;5.13;;
12719;SDS011;6424;48.520;11.228;2023-05-28T03:59:30;11.77;;;5.23;;
12719;SDS011;6424;48.520;11.228;2023-05-28T04:02:10;7.73;;;5.00;;
12719;SDS011;6424;48.520;11.228;2023-05-28T04:04:51;8.17;;;5.40;;
12719;SDS011;6424;48.520;11.228;2023-05-28T04:07:32;9.13;;;5.13;;
12719;SDS011;6424;48.520;11.228;2023-05-28T04:10:13;8.57;;;4.83;;
12719;SDS011;6424;48.520;11.228;2023-05-28T04:12:53;8.30;;;4.93;;
12719;SDS011;6424;48.520;11.228;2023-05-28T04:15:22;7.17;;;4.87;;
12719;SDS011;6424;48.520;11.228;2023-05-28T04:18:03;6.43;;;4.63;;
12719;SDS011;6424;48.520;11.228;2023-05-28T04:20:44;7.57;;;4.70;;
12719;SDS011;6424;48.520;11.228;2023-05-28T04:23:24;7.47;;;4.97;;
12719;SDS011;6424;48.520;11.228;2023-05-28T04:26:05;6.73;;;4.60;;
12719;SDS011;6424;48.520;11.228;2023-05-28T04:28:46;8.17;;;4.80;;
12719;SDS011;6424;48.520;11.228;2023-05-28T04:31:28;8.50;;;4.90;;
12719;SDS011;6424;48.520;11.228;2023-05-28T04:33:54;7.13;;;4.43;;
12719;SDS011;6424;48.520;11.228;2023-05-28T04:36:34;10.70;;;5.03;;
12719;SDS011;6424;48.520;11.228;2023-05-28T04:39:17;9.53;;;5.47;;
12719;SDS011;6424;48.520;11.228;2023-05-28T04:41:59;8.20;;;4.80;;
12719;SDS011;6424;48.520;11.228;2023-05-28T04:44:43;7.03;;;4.70;;
12719;SDS011;6424;48.520;11.228;2023-05-28T04:47:25;6.90;;;4.97;;
12719;SDS011;6424;48.520;11.228;2023-05-28T04:50:05;8.23;;;5.33;;
12719;SDS011;6424;48.520;11.228;2023-05-28T04:52:32;7.93;;;5.17;;
12719;SDS011;6424;48.520;11.228;2023-05-28T04:55:15;7.23;;;4.93;;
12719;SDS011;6424;48.520;11.228;2023-05-28T04:57:56;5.43;;;4.63;;
12719;SDS011;6424;48.520;11.228;2023-05-28T05:00:37;7.80;;;5.30;;
12719;SDS011;6424;48.520;11.228;2023-05-28T05:03:18;7.87;;;5.23;;
12719;SDS011;6424;48.520;11.228;2023-05-28T05:05:59;7.67;;;4.97;;
12719;SDS011;6424;48.520;11.228;2023-05-28T05:08:40;8.50;;;4.93;;
12719;SDS011;6424;48.520;11.228;2023-05-28T05:11:21;7.00;;;4.77;;
12719;SDS011;6424;48.520;11.228;2023-05-28T05:14:01;7.03;;;5.07;;
12719;SDS011;6424;48.520;11.228;2023-05-28T05:16:42;7.03;;;5.17;;
12719;SDS011;6424;48.520;11.228;2023-05-28T05:19:23;7.90;;;5.43;;
12719;SDS011;6424;48.520;11.228;2023-05-28T05:22:05;6.47;;;4.50;;
12719;SDS011;6424;48.520;11.228;2023-05-28T05:24:46;8.40;;;5.57;;
12719;SDS011;6424;48.520;11.228;2023-05-28T05:27:34;7.30;;;5.13;;
12719;SDS011;6424;48.520;11.228;2023-05-28T05:30:15;8.67;;;5.10;;
12719;SDS011;6424;48.520;11.228;2023-05-28T05:32:56;8.20;;;4.90;;
12719;SDS011;6424;48.520;11.228;2023-05-28T05:35:37;8.50;;;5.37;;
12719;SDS011;6424;48.520;11.228;2023-05-28T05:38:18;9.93;;;4.77;;
12719;SDS011;6424;48.520;11.228;2023-05-28T05:41:00;9.17;;;5.03;;
12719;SDS011;6424;48.520;11.228;2023-05-28T05:43:40;9.70;;;4.80;;
12719;SDS011;6424;48.520;11.228;2023-05-28T05:46:21;7.17;;;5.07;;
12719;SDS011;6424;48.520;11.228;2023-05-28T05:49:02;9.20;;;5.07;;
12719;SDS011;6424;48.520;11.228;2023-05-28T05:51:43;7.17;;;4.67;;
12719;SDS011;6424;48.520;11.228;2023-05-28T05:54:23;5.93;;;4.53;;
12719;SDS011;6424;48.520;11.228;2023-05-28T05:57:04;7.13;;;4.70;;
12719;SDS011;6424;48.520;11.228;2023-05-28T05:59:45;8.53;;;4.57;;
12719;SDS011;6424;48.520;11.228;2023-05-28T06:02:11;7.67;;;4.93;;
12719;SDS011;6424;48.520;11.228;2023-05-28T06:04:51;7.07;;;4.73;;
12719;SDS011;6424;48.520;11.228;2023-05-28T06:07:17;6.33;;;4.47;;
12719;SDS011;6424;48.520;11.228;2023-05-28T06:09:43;8.13;;;5.20;;
12719;SDS011;6424;48.520;11.228;2023-05-28T06:12:24;7.90;;;4.23;;
12719;SDS011;6424;48.520;11.228;2023-05-28T06:15:05;10.40;;;4.70;;
12719;SDS011;6424;48.520;11.228;2023-05-28T06:17:46;8.83;;;4.77;;
12719;SDS011;6424;48.520;11.228;2023-05-28T06:20:13;6.93;;;4.73;;
12719;SDS011;6424;48.520;11.228;2023-05-28T06:22:53;8.70;;;5.17;;
12719;SDS011;6424;48.520;11.228;2023-05-28T06:25:20;9.33;;;4.63;;
12719;SDS011;6424;48.520;11.228;2023-05-28T06:28:01;9.73;;;4.50;;
12719;SDS011;6424;48.520;11.228;2023-05-28T06:30:42;8.53;;;4.33;;
12719;SDS011;6424;48.520;11.228;2023-05-28T06:33:23;10.57;;;4.73;;
12719;SDS011;6424;48.520;11.228;2023-05-28T06:36:04;7.47;;;4.57;;
12719;SDS011;6424;48.520;11.228;2023-05-28T06:38:47;9.37;;;4.40;;
12719;SDS011;6424;48.520;11.228;2023-05-28T06:41:27;7.83;;;4.00;;
12719;SDS011;6424;48.520;11.228;2023-05-28T06:44:08;7.43;;;3.60;;
12719;SDS011;6424;48.520;11.228;2023-05-28T06:46:49;7.07;;;4.00;;
12719;SDS011;6424;48.520;11.228;2023-05-28T06:49:29;8.10;;;3.90;;
12719;SDS011;6424;48.520;11.228;2023-05-28T06:52:10;9.90;;;4.20;;
12719;SDS011;6424;48.520;11.228;2023-05-28T06:54:51;7.53;;;4.07;;
12719;SDS011;6424;48.520;11.228;2023-05-28T06:57:32;12.10;;;4.67;;
12719;SDS011;6424;48.520;11.228;2023-05-28T07:00:13;10.13;;;4.73;;
12719;SDS011;6424;48.520;11.228;2023-05-28T07:02:57;8.87;;;3.90;;
12719;SDS011;6424;48.520;11.228;2023-05-28T07:05:37;7.83;;;3.77;;
12719;SDS011;6424;48.520;11.228;2023-05-28T07:08:18;8.43;;;4.40;;
12719;SDS011;6424;48.520;11.228;2023-05-28T07:10:59;7.63;;;4.20;;
12719;SDS011;6424;48.520;11.228;2023-05-28T07:13:40;8.57;;;4.27;;
12719;SDS011;6424;48.520;11.228;2023-05-28T07:16:21;9.43;;;3.97;;
12719;SDS011;6424;48.520;11.228;2023-05-28T07:19:02;9.40;;;3.87;;
12719;SDS011;6424;48.520;11.228;2023-05-28T07:21:44;7.20;;;4.30;;
12719;SDS011;6424;48.520;11.228;2023-05-28T07:24:26;7.93;;;4.00;;
12719;SDS011;6424;48.520;11.228;2023-05-28T07:26:52;5.87;;;3.83;;
12719;SDS011;6424;48.520;11.228;2023-05-28T07:29:33;7.10;;;3.60;;
12719;SDS011;6424;48.520;11.228;2023-05-28T07:32:13;7.80;;;3.87;;
12719;SDS011;6424;48.520;11.228;2023-05-28T07:34:54;5.80;;;3.40;;
12719;SDS011;6424;48.520;11.228;2023-05-28T07:37:35;9.13;;;3.50;;
12719;SDS011;6424;48.520;11.228;2023-05-28T07:40:18;7.90;;;3.50;;
12719;SDS011;6424;48.520;11.228;2023-05-28T07:42:59;8.17;;;4.10;;
12719;SDS011;6424;48.520;11.228;2023-05-28T07:45:40;9.50;;;4.33;;
12719;SDS011;6424;48.520;11.228;2023-05-28T07:48:06;7.90;;;3.90;;
12719;SDS011;6424;48.520;11.228;2023-05-28T07:50:46;7.47;;;3.90;;
12719;SDS011;6424;48.520;11.228;2023-05-28T07:53:27;7.67;;;3.47;;
12719;SDS011;6424;48.520;11.228;2023-05-28T07:56:08;7.10;;;3.93;;
12719;SDS011;6424;48.520;11.228;2023-05-28T07:58:49;5.83;;;3.80;;
12719;SDS011;6424;48.520;11.228;2023-05-28T08:01:31;6.40;;;3.20;;
12719;SDS011;6424;48.520;11.228;2023-05-28T08:04:12;8.57;;;3.87;;
12719;SDS011;6424;48.520;11.228;2023-05-28T08:06:53;6.83;;;3.60;;
12719;SDS011;6424;48.520;11.228;2023-05-28T08:09:33;7.13;;;3.87;;
12719;SDS011;6424;48.520;11.228;2023-05-28T08:12:14;7.33;;;3.80;;
12719;SDS011;6424;48.520;11.228;2023-05-28T08:14:55;7.93;;;3.90;;
12719;SDS011;6424;48.520;11.228;2023-05-28T08:17:36;8.47;;;4.23;;
12719;SDS011;6424;48.520;11.228;2023-05-28T08:20:17;7.77;;;3.97;;
12719;SDS011;6424;48.520;11.228;2023-05-28T08:22:57;7.67;;;3.90;;
12719;SDS011;6424;48.520;11.228;2023-05-28T08:25:23;7.03;;;4.00;;
12719;SDS011;6424;48.520;11.228;2023-05-28T08:28:04;7.43;;;3.97;;
12719;SDS011;6424;48.520;11.228;2023-05-28T08:30:45;6.20;;;3.63;;
12719;SDS011;6424;48.520;11.228;2023-05-28T08:33:26;6.07;;;4.10;;
12719;SDS011;6424;48.520;11.228;2023-05-28T08:36:07;6.93;;;4.00;;
12719;SDS011;6424;48.520;11.228;2023-05-28T08:38:47;7.60;;;4.07;;
12719;SDS011;6424;48.520;11.228;2023-05-28T08:41:13;7.53;;;3.97;;
12719;SDS011;6424;48.520;11.228;2023-05-28T08:43:54;7.23;;;3.57;;
12719;SDS011;6424;48.520;11.228;2023-05-28T08:46:35;6.47;;;3.50;;
12719;SDS011;6424;48.520;11.228;2023-05-28T08:49:17;9.40;;;4.20;;
12719;SDS011;6424;48.520;11.228;2023-05-28T08:51:43;6.73;;;3.97;;
12719;SDS011;6424;48.520;11.228;2023-05-28T08:54:30;6.10;;;3.70;;
12719;SDS011;6424;48.520;11.228;2023-05-28T08:57:10;8.73;;;4.27;;
12719;SDS011;6424;48.520;11.228;2023-05-28T08:59:52;8.37;;;3.77;;
12719;SDS011;6424;48.520;11.228;2023-05-28T09:02:34;9.87;;;4.00;;
12719;SDS011;6424;48.520;11.228;2023-05-28T09:05:15;6.80;;;3.83;;
12719;SDS011;6424;48.520;11.228;2023-05-28T09:07:56;7.50;;;3.40;;
12719;SDS011;6424;48.520;11.228;2023-05-28T09:10:37;5.90;;;3.37;;
12719;SDS011;6424;48.520;11.228;2023-05-28T09:13:21;8.53;;;3.93;;
12719;SDS011;6424;48.520;11.228;2023-05-28T09:16:02;7.17;;;4.13;;
12719;SDS011;6424;48.520;11.228;2023-05-28T09:18:42;7.50;;;4.13;;
12719;SDS011;6424;48.520;11.228;2023-05-28T09:21:23;9.63;;;4.00;;
12719;SDS011;6424;48.520;11.228;2023-05-28T09:24:05;9.43;;;4.43;;
12719;SDS011;6424;48.520;11.228;2023-05-28T09:26:46;6.03;;;3.80;;
12719;SDS011;6424;48.520;11.228;2023-05-28T09:29:27;6.43;;;3.77;;
12719;SDS011;6424;48.520;11.228;2023-05-28T09:32:08;6.83;;;3.97;;
12719;SDS011;6424;48.520;11.228;2023-05-28T09:34:49;7.53;;;3.90;;
12719;SDS011;6424;48.520;11.228;2023-05-28T09:37:36;6.70;;;3.90;;
12719;SDS011;6424;48.520;11.228;2023-05-28T09:40:17;7.67;;;4.27;;
12719;SDS011;6424;48.520;11.228;2023-05-28T09:42:57;5.30;;;3.07;;
12719;SDS011;6424;48.520;11.228;2023-05-28T09:45:38;8.07;;;4.07;;
12719;SDS011;6424;48.520;11.228;2023-05-28T09:48:05;6.53;;;3.83;;
12719;SDS011;6424;48.520;11.228;2023-05-28T09:50:46;7.80;;;3.80;;
12719;SDS011;6424;48.520;11.228;2023-05-28T09:53:28;9.73;;;3.87;;
12719;SDS011;6424;48.520;11.228;2023-05-28T09:56:13;12.27;;;4.03;;
12719;SDS011;6424;48.520;11.228;2023-05-28T09:58:54;4.77;;;3.40;;
12719;SDS011;6424;48.520;11.228;2023-05-28T10:04:30;6.90;;;3.97;;
12719;SDS011;6424;48.520;11.228;2023-05-28T10:07:14;7.93;;;3.57;;
12719;SDS011;6424;48.520;11.228;2023-05-28T10:09:56;7.63;;;4.10;;
12719;SDS011;6424;48.520;11.228;2023-05-28T10:12:40;8.23;;;3.60;;
12719;SDS011;6424;48.520;11.228;2023-05-28T10:15:21;8.10;;;3.97;;
12719;SDS011;6424;48.520;11.228;2023-05-28T10:18:03;7.23;;;3.87;;
12719;SDS011;6424;48.520;11.228;2023-05-28T10:20:45;8.43;;;3.90;;
12719;SDS011;6424;48.520;11.228;2023-05-28T10:23:26;7.13;;;3.87;;
12719;SDS011;6424;48.520;11.228;2023-05-28T10:26:08;7.77;;;3.83;;
12719;SDS011;6424;48.520;11.228;2023-05-28T10:28:53;7.87;;;3.93;;
12719;SDS011;6424;48.520;11.228;2023-05-28T10:31:35;8.37;;;4.23;;
12719;SDS011;6424;48.520;11.228;2023-05-28T10:34:16;8.47;;;3.93;;
12719;SDS011;6424;48.520;11.228;2023-05-28T10:36:57;7.90;;;3.97;;
12719;SDS011;6424;48.520;11.228;2023-05-28T10:39:43;8.37;;;4.20;;
12719;SDS011;6424;48.520;11.228;2023-05-28T10:42:25;7.03;;;3.97;;
12719;SDS011;6424;48.520;11.228;2023-05-28T10:45:07;9.03;;;4.00;;
12719;SDS011;6424;48.520;11.228;2023-05-28T10:47:52;7.97;;;4.30;;
12719;SDS011;6424;48.520;11.228;2023-05-28T10:50:33;8.27;;;3.70;;
12719;SDS011;6424;48.520;11.228;2023-05-28T10:53:26;7.23;;;3.77;;
12719;SDS011;6424;48.520;11.228;2023-05-28T10:56:07;9.47;;;4.23;;
12719;SDS011;6424;48.520;11.228;2023-05-28T11:03:55;7.87;;;3.83;;
12719;SDS011;6424;48.520;11.228;2023-05-28T11:06:36;9.50;;;4.13;;
12719;SDS011;6424;48.520;11.228;2023-05-28T11:09:20;11.67;;;4.53;;
12719;SDS011;6424;48.520;11.228;2023-05-28T11:12:01;9.57;;;4.00;;
12719;SDS011;6424;48.520;11.228;2023-05-28T11:14:42;7.77;;;4.33;;
12719;SDS011;6424;48.520;11.228;2023-05-28T11:17:23;6.47;;;3.80;;
12719;SDS011;6424;48.520;11.228;2023-05-28T11:20:04;5.60;;;3.33;;
12719;SDS011;6424;48.520;11.228;2023-05-28T11:22:54;6.27;;;3.57;;
12719;SDS011;6424;48.520;11.228;2023-05-28T11:25:41;6.10;;;3.37;;
12719;SDS011;6424;48.520;11.228;2023-05-28T11:28:22;9.90;;;3.93;;
12719;SDS011;6424;48.520;11.228;2023-05-28T11:31:03;6.20;;;3.80;;
12719;SDS011;6424;48.520;11.228;2023-05-28T11:33:29;5.77;;;3.70;;
12719;SDS011;6424;48.520;11.228;2023-05-28T11:35:56;6.60;;;3.90;;
12719;SDS011;6424;48.520;11.228;2023-05-28T11:38:38;6.97;;;4.00;;
12719;SDS011;6424;48.520;11.228;2023-05-28T11:41:23;6.20;;;3.83;;
12719;SDS011;6424;48.520;11.228;2023-05-28T11:44:20;5.63;;;4.00;;
12719;SDS011;6424;48.520;11.228;2023-05-28T11:47:02;8.20;;;4.03;;
12719;SDS011;6424;48.520;11.228;2023-05-28T11:49:44;5.70;;;3.90;;
12719;SDS011;6424;48.520;11.228;2023-05-28T11:52:26;9.50;;;3.90;;
12719;SDS011;6424;48.520;11.228;2023-05-28T11:55:07;6.63;;;3.50;;
12719;SDS011;6424;48.520;11.228;2023-05-28T11:57:50;5.27;;;4.13;;
12719;SDS011;6424;48.520;11.228;2023-05-28T12:00:33;9.50;;;3.63;;
12719;SDS011;6424;48.520;11.228;2023-05-28T12:03:16;6.10;;;3.90;;
12719;SDS011;6424;48.520;11.228;2023-05-28T12:05:56;6.53;;;4.10;;
12719;SDS011;6424;48.520;11.228;2023-05-28T12:08:38;8.30;;;4.10;;
12719;SDS011;6424;48.520;11.228;2023-05-28T12:11:24;9.37;;;4.53;;
12719;SDS011;6424;48.520;11.228;2023-05-28T12:14:12;6.53;;;3.83;;
12719;SDS011;6424;48.520;11.228;2023-05-28T12:17:00;7.07;;;4.30;;
12719;SDS011;6424;48.520;11.228;2023-05-28T12:19:50;6.93;;;3.70;;
12719;SDS011;6424;48.520;11.228;2023-05-28T12:22:31;5.17;;;4.13;;
12719;SDS011;6424;48.520;11.228;2023-05-28T12:25:12;6.27;;;3.70;;
12719;SDS011;6424;48.520;11.228;2023-05-28T12:27:53;11.10;;;4.43;;
12719;SDS011;6424;48.520;11.228;2023-05-28T12:30:34;7.03;;;4.00;;
12719;SDS011;6424;48.520;11.228;2023-05-28T12:33:15;6.53;;;3.97;;
12719;SDS011;6424;48.520;11.228;2023-05-28T12:35:56;6.83;;;4.20;;
12719;SDS011;6424;48.520;11.228;2023-05-28T12:38:39;4.77;;;3.30;;
12719;SDS011;6424;48.520;11.228;2023-05-28T12:41:20;6.97;;;3.97;;
12719;SDS011;6424;48.520;11.228;2023-05-28T12:43:46;5.50;;;3.50;;
12719;SDS011;6424;48.520;11.228;2023-05-28T12:46:12;6.87;;;3.97;;
12719;SDS011;6424;48.520;11.228;2023-05-28T12:48:53;7.43;;;4.00;;
12719;SDS011;6424;48.520;11.228;2023-05-28T12:51:33;6.63;;;3.73;;
12719;SDS011;6424;48.520;11.228;2023-05-28T12:54:15;7.43;;;3.90;;
12719;SDS011;6424;48.520;11.228;2023-05-28T12:56:56;10.10;;;4.47;;
12719;SDS011;6424;48.520;11.228;2023-05-28T12:59:37;6.93;;;4.00;;
12719;SDS011;6424;48.520;11.228;2023-05-28T13:02:18;8.33;;;3.83;;
12719;SDS011;6424;48.520;11.228;2023-05-28T13:04:58;5.13;;;4.20;;
12719;SDS011;6424;48.520;11.228;2023-05-28T13:07:40;8.80;;;4.30;;
12719;SDS011;6424;48.520;11.228;2023-05-28T13:10:21;6.10;;;3.63;;
12719;SDS011;6424;48.520;11.228;2023-05-28T13:13:02;7.10;;;3.60;;
12719;SDS011;6424;48.520;11.228;2023-05-28T13:15:28;5.83;;;4.00;;
12719;SDS011;6424;48.520;11.228;2023-05-28T13:18:09;7.30;;;3.83;;
12719;SDS011;6424;48.520;11.228;2023-05-28T13:20:49;7.60;;;4.30;;
12719;SDS011;6424;48.520;11.228;2023-05-28T13:23:30;6.53;;;4.23;;
12719;SDS011;6424;48.520;11.228;2023-05-28T13:26:11;6.17;;;3.97;;
12719;SDS011;6424;48.520;11.228;2023-05-28T13:28:52;6.60;;;3.57;;
12719;SDS011;6424;48.520;11.228;2023-05-28T13:31:33;7.40;;;3.80;;
12719;SDS011;6424;48.520;11.228;2023-05-28T13:34:14;7.43;;;4.20;;
12719;SDS011;6424;48.520;11.228;2023-05-28T13:36:40;6.03;;;3.80;;
12719;SDS011;6424;48.520;11.228;2023-05-28T13:39:21;8.03;;;3.73;;
12719;SDS011;6424;48.520;11.228;2023-05-28T13:42:02;4.73;;;3.70;;
12719;SDS011;6424;48.520;11.228;2023-05-28T13:44:43;5.07;;;3.97;;
12719;SDS011;6424;48.520;11.228;2023-05-28T13:47:09;6.40;;;3.70;;
12719;SDS011;6424;48.520;11.228;2023-05-28T13:49:50;5.87;;;3.63;;
12719;SDS011;6424;48.520;11.228;2023-05-28T13:52:31;6.23;;;4.13;;
12719;SDS011;6424;48.520;11.228;2023-05-28T13:55:12;6.47;;;4.00;;
12719;SDS011;6424;48.520;11.228;2023-05-28T13:57:52;8.60;;;4.20;;
12719;SDS011;6424;48.520;11.228;2023-05-28T14:00:33;6.33;;;4.20;;
12719;SDS011;6424;48.520;11.228;2023-05-28T14:03:14;5.37;;;3.93;;
12719;SDS011;6424;48.520;11.228;2023-05-28T14:05:56;6.33;;;4.47;;
12719;SDS011;6424;48.520;11.228;2023-05-28T14:08:37;7.90;;;4.17;;
12719;SDS011;6424;48.520;11.228;2023-05-28T14:11:17;5.00;;;4.20;;
12719;SDS011;6424;48.520;11.228;2023-05-28T14:13:58;6.47;;;4.03;;
12719;SDS011;6424;48.520;11.228;2023-05-28T14:16:39;5.63;;;4.20;;
12719;SDS011;6424;48.520;11.228;2023-05-28T14:19:20;6.40;;;4.23;;
12719;SDS011;6424;48.520;11.228;2023-05-28T14:22:01;7.77;;;4.87;;
12719;SDS011;6424;48.520;11.228;2023-05-28T14:24:41;4.43;;;3.80;;
12719;SDS011;6424;48.520;11.228;2023-05-28T14:27:22;6.73;;;4.37;;
12719;SDS011;6424;48.520;11.228;2023-05-28T14:30:03;6.10;;;4.20;;
12719;SDS011;6424;48.520;11.228;2023-05-28T14:32:45;5.57;;;4.10;;
12719;SDS011;6424;48.520;11.228;2023-05-28T14:35:26;6.47;;;4.50;;
12719;SDS011;6424;48.520;11.228;2023-05-28T14:38:06;5.17;;;3.97;;
12719;SDS011;6424;48.520;11.228;2023-05-28T14:40:47;7.00;;;4.40;;
12719;SDS011;6424;48.520;11.228;2023-05-28T14:43:28;6.73;;;4.30;;
12719;SDS011;6424;48.520;11.228;2023-05-28T14:46:10;5.83;;;4.40;;
12719;SDS011;6424;48.520;11.228;2023-05-28T14:48:50;6.00;;;4.70;;
12719;SDS011;6424;48.520;11.228;2023-05-28T14:51:31;6.03;;;4.13;;
12719;SDS011;6424;48.520;11.228;2023-05-28T14:54:12;6.83;;;4.50;;
12719;SDS011;6424;48.520;11.228;2023-05-28T14:56:53;7.23;;;4.80;;
12719;SDS011;6424;48.520;11.228;2023-05-28T14:59:33;6.73;;;4.50;;
12719;SDS011;6424;48.520;11.228;2023-05-28T15:01:59;6.27;;;4.50;;
12719;SDS011;6424;48.520;11.228;2023-05-28T15:04:43;5.90;;;4.50;;
12719;SDS011;6424;48.520;11.228;2023-05-28T15:07:25;7.13;;;5.03;;
12719;SDS011;6424;48.520;11.228;2023-05-28T15:10:06;5.23;;;4.40;;
12719;SDS011;6424;48.520;11.228;2023-05-28T15:12:47;9.43;;;4.90;;
12719;SDS011;6424;48.520;11.228;2023-05-28T15:15:28;6.50;;;4.90;;
12719;SDS011;6424;48.520;11.228;2023-05-28T15:18:08;6.63;;;4.87;;
12719;SDS011;6424;48.520;11.228;2023-05-28T15:20:49;6.70;;;4.80;;
12719;SDS011;6424;48.520;11.228;2023-05-28T15:23:30;6.43;;;4.63;;
12719;SDS011;6424;48.520;11.228;2023-05-28T15:26:12;8.10;;;5.67;;
12719;SDS011;6424;48.520;11.228;2023-05-28T15:28:52;7.77;;;5.00;;
12719;SDS011;6424;48.520;11.228;2023-05-28T15:31:33;7.93;;;5.27;;
12719;SDS011;6424;48.520;11.228;2023-05-28T15:34:14;6.67;;;4.97;;
12719;SDS011;6424;48.520;11.228;2023-05-28T15:36:41;8.27;;;4.93;;
12719;SDS011;6424;48.520;11.228;2023-05-28T15:39:22;5.53;;;4.97;;
12719;SDS011;6424;48.520;11.228;2023-05-28T15:42:03;7.50;;;5.00;;
12719;SDS011;6424;48.520;11.228;2023-05-28T15:44:33;8.93;;;5.63;;
12719;SDS011;6424;48.520;11.228;2023-05-28T15:47:14;8.33;;;5.73;;
12719;SDS011;6424;48.520;11.228;2023-05-28T15:49:40;7.50;;;5.27;;
12719;SDS011;6424;48.520;11.228;2023-05-28T15:52:21;6.53;;;5.47;;
12719;SDS011;6424;48.520;11.228;2023-05-28T15:55:02;7.97;;;5.90;;
12719;SDS011;6424;48.520;11.228;2023-05-28T15:57:28;7.43;;;5.00;;
12719;SDS011;6424;48.520;11.228;2023-05-28T16:00:09;7.77;;;4.77;;
12719;SDS011;6424;48.520;11.228;2023-05-28T16:02:50;7.50;;;5.37;;
12719;SDS011;6424;48.520;11.228;2023-05-28T16:05:33;8.17;;;5.80;;
12719;SDS011;6424;48.520;11.228;2023-05-28T16:08:15;9.43;;;5.40;;
12719;SDS011;6424;48.520;11.228;2023-05-28T16:10:41;9.00;;;6.63;;
12719;SDS011;6424;48.520;11.228;2023-05-28T16:13:23;10.10;;;5.47;;